Time;durP1;ratioP1;P1;durP2;ratioP2;P2;SDS_P1;SDS_P2;PMS_P1;PMS_P2;Temp;Humidity;BMP_temperature;BMP_pressure;BME280_temperature;BME280_humidity;BME280_pressure;Samples;Min_cycle;Max_cycle;Signal;HPM_P1;HPM_P2
2022/01/30 00:01:58;;;;;;;15.95;8.40;;;;;;;-2.54;61.19;95908.16;5009182;28;20032;-76
2022/01/30 00:04:24;;;;;;;16.10;8.35;;;;;;;-2.44;60.88;95905.00;5027964;28;20025;-76
2022/01/30 00:06:49;;;;;;;17.05;7.50;;;;;;;-2.65;61.02;95907.91;5024915;28;20025;-76
2022/01/30 00:09:21;;;;;;;15.52;7.93;;;;;;;-2.57;61.14;95910.09;5026507;28;20105;-76
2022/01/30 00:11:51;;;;;;;12.75;6.65;;;;;;;-2.55;61.16;95903.00;5026664;28;20033;-74
2022/01/30 00:14:19;;;;;;;13.85;7.05;;;;;;;-2.56;60.93;95896.88;5027492;28;20507;-75
2022/01/30 00:16:44;;;;;;;11.95;6.40;;;;;;;-2.57;61.23;95891.72;5025349;28;20088;-75
2022/01/30 00:19:22;;;;;;;9.95;5.93;;;;;;;-2.69;61.07;95885.38;5026724;28;20025;-74
2022/01/30 00:21:53;;;;;;;12.18;5.53;;;;;;;-2.75;60.95;95883.91;5027256;28;20018;-74
2022/01/30 00:24:27;;;;;;;12.77;5.50;;;;;;;-2.83;61.05;95879.09;5026323;28;20099;-75
2022/01/30 00:26:52;;;;;;;10.93;5.70;;;;;;;-2.72;60.73;95872.41;5027192;28;20079;-75
2022/01/30 00:29:18;;;;;;;10.95;5.75;;;;;;;-2.78;61.62;95866.56;5026585;28;20466;-76
2022/01/30 00:31:43;;;;;;;8.85;5.63;;;;;;;-2.70;61.21;95863.50;5009072;28;20029;-76
2022/01/30 00:34:08;;;;;;;9.38;5.28;;;;;;;-2.62;60.37;95861.31;5027143;28;20076;-76
2022/01/30 00:36:34;;;;;;;8.65;5.65;;;;;;;-2.79;60.89;95859.59;5025538;28;20408;-75
2022/01/30 00:38:59;;;;;;;8.52;5.40;;;;;;;-2.79;60.81;95867.47;5027325;28;20033;-74
2022/01/30 00:41:25;;;;;;;12.85;5.90;;;;;;;-2.86;61.07;95872.22;5024637;28;20420;-74
2022/01/30 00:43:51;;;;;;;12.77;5.35;;;;;;;-2.86;61.11;95864.34;5027031;28;20033;-74
2022/01/30 00:46:16;;;;;;;10.63;5.30;;;;;;;-2.93;61.76;95867.38;5026132;28;20029;-75
2022/01/30 00:48:41;;;;;;;10.52;5.28;;;;;;;-2.99;61.76;95856.28;5024897;28;20021;-75
2022/01/30 00:51:07;;;;;;;11.60;5.50;;;;;;;-2.98;61.42;95854.50;5024683;28;20464;-75
2022/01/30 00:53:32;;;;;;;13.90;5.93;;;;;;;-2.93;61.94;95852.47;5008900;28;20060;-75
2022/01/30 00:55:58;;;;;;;13.35;5.63;;;;;;;-2.84;61.59;95843.25;5025275;28;20466;-75
2022/01/30 00:58:24;;;;;;;9.23;5.00;;;;;;;-2.96;61.65;95846.53;5024485;28;20049;-75
2022/01/30 01:00:49;;;;;;;9.30;4.40;;;;;;;-3.01;61.83;95844.16;5027216;28;20056;-75
2022/01/30 01:03:15;;;;;;;8.65;4.70;;;;;;;-3.08;62.05;95830.56;5025817;28;20030;-75
2022/01/30 01:05:40;;;;;;;8.52;4.43;;;;;;;-3.02;62.07;95831.97;5027218;28;20025;-75
2022/01/30 01:08:21;;;;;;;9.02;5.38;;;;;;;-3.26;62.55;95827.13;5007602;28;20036;-74
2022/01/30 01:23:54;;;;;;;9.48;4.43;;;;;;;-3.32;62.91;95806.47;5026046;28;20129;-75
2022/01/30 01:26:20;;;;;;;5.95;3.92;;;;;;;-3.24;61.80;95799.03;5025046;28;20032;-75
2022/01/30 01:28:46;;;;;;;7.63;4.13;;;;;;;-3.23;61.98;95792.84;5024006;28;20037;-74
2022/01/30 01:31:11;;;;;;;6.63;3.80;;;;;;;-3.17;61.97;95778.53;5008741;28;20026;-74
2022/01/30 01:36:05;;;;;;;7.20;4.10;;;;;;;-3.11;61.69;95770.31;5025078;28;20079;-74
2022/01/30 01:38:30;;;;;;;6.93;3.72;;;;;;;-3.04;61.93;95776.94;5024348;28;20105;-75
2022/01/30 01:40:56;;;;;;;6.35;4.07;;;;;;;-2.98;61.36;95760.00;5026168;28;20030;-75
2022/01/30 01:43:22;;;;;;;5.22;3.60;;;;;;;-2.94;61.37;95756.28;5024607;28;20031;-75
2022/01/30 01:45:51;;;;;;;7.75;4.03;;;;;;;-2.95;61.58;95748.50;5024116;28;20038;-75
2022/01/30 01:48:16;;;;;;;7.38;4.00;;;;;;;-2.90;61.52;95749.94;5024952;28;20026;-75
2022/01/30 01:50:50;;;;;;;4.82;3.63;;;;;;;-2.77;61.40;95755.34;5023779;28;20071;-75
2022/01/30 01:53:16;;;;;;;8.00;4.45;;;;;;;-2.73;61.13;95756.00;5026457;28;20029;-76
2022/01/30 01:55:42;;;;;;;8.60;4.65;;;;;;;-2.73;60.76;95750.75;5023993;28;20033;-75
2022/01/30 01:58:07;;;;;;;6.75;4.20;;;;;;;-2.75;60.54;95742.13;5024459;28;20033;-76
2022/01/30 02:00:33;;;;;;;6.68;4.15;;;;;;;-2.79;61.36;95740.63;5009662;28;20503;-76
2022/01/30 02:02:58;;;;;;;9.10;4.53;;;;;;;-2.71;60.03;95741.03;5029197;28;20489;-74
2022/01/30 02:05:27;;;;;;;9.90;5.45;;;;;;;-2.74;59.75;95738.56;5012145;28;20491;-75
2022/01/30 02:10:35;;;;;;;8.13;4.80;;;;;;;-2.79;59.29;95736.19;5028658;28;20025;-75
2022/01/30 02:13:20;;;;;;;5.75;4.18;;;;;;;-2.93;59.82;95733.50;5028989;28;20060;-75
2022/01/30 02:24:06;;;;;;;7.85;4.40;;;;;;;-3.42;61.61;95719.56;5014469;28;20517;-75
2022/01/30 02:26:44;;;;;;;9.45;4.72;;;;;;;-3.46;61.99;95718.88;5029082;28;20457;-75
2022/01/30 02:29:10;;;;;;;9.75;4.00;;;;;;;-3.47;62.23;95714.56;5012030;28;20026;-75
2022/01/30 02:31:38;;;;;;;8.45;4.80;;;;;;;-3.46;62.10;95705.75;5028297;28;20029;-76
2022/01/30 02:34:04;;;;;;;6.32;4.38;;;;;;;-3.41;61.76;95708.13;5026900;28;20033;-76
2022/01/30 02:36:29;;;;;;;8.45;4.03;;;;;;;-3.43;62.37;95691.66;5029268;28;20103;-75
2022/01/30 02:38:58;;;;;;;7.13;4.45;;;;;;;-3.45;61.90;95683.84;5028349;28;20033;-75
2022/01/30 02:41:23;;;;;;;6.18;4.10;;;;;;;-3.42;62.32;95680.22;5028829;28;20029;-74
2022/01/30 02:44:05;;;;;;;8.52;4.93;;;;;;;-3.35;62.12;95677.16;5027548;28;20434;-76
2022/01/30 02:46:31;;;;;;;11.43;5.20;;;;;;;-3.34;61.67;95678.03;5027987;28;20120;-74
2022/01/30 02:49:00;;;;;;;7.85;4.65;;;;;;;-3.26;61.58;95685.47;5029586;28;20036;-76
2022/01/30 02:51:33;;;;;;;8.30;4.57;;;;;;;-3.28;61.54;95679.44;5026312;28;20033;-75
2022/01/30 02:54:07;;;;;;;6.88;3.88;;;;;;;-3.28;61.83;95682.06;5029055;28;20108;-75
2022/01/30 02:56:34;;;;;;;;;;;;;;;-3.30;61.31;95669.03;5011907;28;20053;-76
2022/01/30 02:58:59;;;;;;;7.88;3.92;;;;;;;-3.32;61.48;95664.81;5028370;28;19913;-75
2022/01/30 03:01:25;;;;;;;6.43;4.05;;;;;;;-3.37;61.63;95667.69;5028733;28;20083;-76
2022/01/30 03:03:50;;;;;;;8.55;4.40;;;;;;;-3.41;62.00;95660.91;5028007;28;20018;-74
2022/01/30 03:06:16;;;;;;;8.20;4.00;;;;;;;-3.50;62.66;95657.03;5029189;28;20025;-74
2022/01/30 03:08:41;;;;;;;6.88;4.28;;;;;;;-3.41;62.04;95667.00;5027335;28;20022;-76
2022/01/30 03:11:07;;;;;;;7.70;4.47;;;;;;;-3.40;61.90;95665.25;5027396;28;20048;-75
2022/01/30 03:13:32;;;;;;;6.72;4.57;;;;;;;-3.39;61.33;95682.66;5027205;28;20026;-76
2022/01/30 03:16:00;;;;;;;9.63;4.35;;;;;;;-3.43;62.03;95666.25;5027148;28;20025;-76
2022/01/30 03:18:26;;;;;;;11.57;5.63;;;;;;;-3.49;61.63;95661.34;5026820;28;20022;-76
2022/01/30 03:20:51;;;;;;;8.27;4.97;;;;;;;-3.51;61.91;95668.44;5026637;28;20117;-75
2022/01/30 03:23:17;;;;;;;9.63;4.68;;;;;;;-3.56;62.04;95654.75;5027339;28;20025;-76
2022/01/30 03:25:42;;;;;;;11.63;5.00;;;;;;;-3.60;62.10;95661.94;5025536;28;20026;-75
2022/01/30 03:28:08;;;;;;;8.38;4.88;;;;;;;-3.77;62.48;95655.00;5027338;28;20029;-76
2022/01/30 03:30:33;;;;;;;7.55;4.18;;;;;;;-3.89;62.98;95659.97;5009441;28;20029;-76
2022/01/30 03:32:59;;;;;;;9.43;4.95;;;;;;;-3.89;62.73;95659.97;5026900;28;20381;-75
2022/01/30 03:35:24;;;;;;;9.43;5.22;;;;;;;-3.90;62.71;95660.88;5027810;28;20025;-75
2022/01/30 03:37:50;;;;;;;6.80;4.32;;;;;;;-3.92;63.08;95668.00;5009782;28;20475;-75
2022/01/30 03:40:15;;;;;;;10.75;4.78;;;;;;;-3.97;63.00;95680.50;5026743;28;20331;-75
2022/01/30 03:42:40;;;;;;;9.25;4.78;;;;;;;-3.99;63.37;95683.19;5025719;28;20026;-75
2022/01/30 03:45:06;;;;;;;8.85;4.50;;;;;;;-4.03;63.58;95680.81;5010680;28;20507;-75
2022/01/30 03:47:32;;;;;;;9.00;5.18;;;;;;;-4.04;63.70;95679.13;5025423;28;20025;-75
2022/01/30 03:49:57;;;;;;;9.88;4.20;;;;;;;-3.95;63.45;95678.66;5026843;28;20036;-75
2022/01/30 03:52:23;;;;;;;10.00;5.00;;;;;;;-3.98;63.88;95682.25;5027411;28;20033;-75
2022/01/30 03:54:48;;;;;;;10.43;4.68;;;;;;;-3.93;63.25;95673.31;5026249;28;20037;-75
2022/01/30 03:57:14;;;;;;;7.93;4.95;;;;;;;-3.90;63.68;95670.53;5027273;28;20041;-76
2022/01/30 03:59:39;;;;;;;10.10;4.47;;;;;;;-3.89;63.86;95664.34;5025481;28;20409;-74
2022/01/30 04:02:05;;;;;;;7.82;4.25;;;;;;;-3.77;63.83;95662.88;5027892;28;20021;-75
2022/01/30 04:04:33;;;;;;;8.55;4.28;;;;;;;-3.73;63.52;95657.38;5026559;28;20068;-76
2022/01/30 04:06:58;;;;;;;7.38;4.47;;;;;;;-3.67;63.81;95653.56;5026499;28;20030;-76
2022/01/30 04:09:25;;;;;;;8.00;4.20;;;;;;;-3.55;63.27;95649.44;5026561;28;20095;-76
2022/01/30 04:11:51;;;;;;;8.82;4.78;;;;;;;-3.45;62.20;95647.13;5026088;28;20030;-76
2022/01/30 04:14:16;;;;;;;6.78;4.40;;;;;;;-3.48;62.38;95644.66;5026919;28;20033;-77
2022/01/30 04:16:42;;;;;;;7.20;4.43;;;;;;;-3.55;62.33;95643.31;5026898;28;20755;-75
2022/01/30 04:19:08;;;;;;;11.23;4.97;;;;;;;-3.62;62.64;95637.56;5009535;28;20029;-76
2022/01/30 04:21:33;;;;;;;8.80;5.18;;;;;;;-3.66;62.17;95620.34;5025281;28;20502;-76
2022/01/30 04:23:59;;;;;;;10.38;5.82;;;;;;;-3.59;62.18;95616.41;5027255;28;20032;-76
2022/01/30 04:26:24;;;;;;;10.70;4.60;;;;;;;-3.67;62.08;95608.97;5024862;28;20099;-76
2022/01/30 04:28:50;;;;;;;9.73;5.20;;;;;;;-3.72;62.34;95605.75;5027120;28;20025;-75
2022/01/30 04:31:15;;;;;;;6.93;4.43;;;;;;;-3.69;62.09;95605.59;5024949;28;20053;-75
2022/01/30 04:33:41;;;;;;;9.60;4.43;;;;;;;-3.55;61.91;95596.13;5027245;28;20028;-75
2022/01/30 04:36:09;;;;;;;11.77;5.20;;;;;;;-3.64;61.94;95592.22;5008664;28;20120;-78
2022/01/30 04:38:53;;;;;;;9.95;5.28;;;;;;;-3.73;61.77;95589.22;5026434;28;20033;-75
2022/01/30 05:07:38;;;;;;;10.50;4.78;;;;;;;-3.53;63.52;95578.53;5009386;28;20330;-76
2022/01/30 05:10:05;;;;;;;12.48;5.22;;;;;;;-3.52;63.30;95562.72;5025305;28;20040;-75
2022/01/30 05:12:39;;;;;;;10.40;5.40;;;;;;;-3.38;63.53;95545.31;5025228;28;20029;-75
2022/01/30 05:15:05;;;;;;;9.20;5.50;;;;;;;-3.32;63.21;95538.91;5024886;28;20026;-76
2022/01/30 05:17:32;;;;;;;8.82;5.07;;;;;;;-3.19;63.11;95539.84;5025877;28;20411;-75
2022/01/30 05:19:57;;;;;;;10.98;5.63;;;;;;;-3.24;63.09;95536.69;5026533;28;20552;-76
2022/01/30 05:22:23;;;;;;;9.77;5.00;;;;;;;-3.17;63.33;95531.91;5024026;28;20029;-76
2022/01/30 05:24:49;;;;;;;8.88;5.07;;;;;;;-3.16;64.11;95529.19;5026666;28;20022;-77
2022/01/30 05:27:15;;;;;;;10.55;5.50;;;;;;;-3.15;63.85;95520.41;5025566;28;20458;-75
2022/01/30 05:29:40;;;;;;;11.95;5.65;;;;;;;-3.12;63.16;95533.34;5025193;28;20036;-75
2022/01/30 05:32:06;;;;;;;9.00;4.97;;;;;;;-3.08;63.79;95536.63;5025530;28;20032;-79
2022/01/30 05:34:32;;;;;;;10.98;6.15;;;;;;;-3.03;63.97;95541.59;5024665;28;20112;-74
2022/01/30 05:36:57;;;;;;;9.15;5.78;;;;;;;-3.01;63.58;95553.69;5028975;28;20025;-78
2022/01/30 05:39:23;;;;;;;11.82;5.78;;;;;;;-2.94;63.37;95553.31;5028216;28;20034;-75
2022/01/30 05:41:49;;;;;;;15.48;6.40;;;;;;;-2.92;63.09;95556.72;5030645;28;20036;-75
2022/01/30 05:44:19;;;;;;;10.82;6.57;;;;;;;-2.96;63.38;95565.69;5027713;28;20038;-76
2022/01/30 05:46:52;;;;;;;10.70;5.50;;;;;;;-3.07;63.39;95569.78;5029320;28;20428;-75
2022/01/30 05:49:17;;;;;;;10.15;5.47;;;;;;;-3.12;63.70;95571.84;5028076;28;20029;-75
2022/01/30 05:51:43;;;;;;;9.27;5.20;;;;;;;-3.09;63.57;95560.34;5029805;28;20045;-80
2022/01/30 05:54:08;;;;;;;9.10;4.53;;;;;;;-2.96;63.66;95532.41;5029800;28;20017;-77
2022/01/30 05:56:34;;;;;;;9.40;5.30;;;;;;;-2.88;62.73;95531.97;5029426;28;20135;-76
2022/01/30 05:59:00;;;;;;;7.75;5.00;;;;;;;-2.93;63.31;95542.72;5029114;28;20103;-76
2022/01/30 06:01:25;;;;;;;10.95;5.97;;;;;;;-3.00;63.32;95539.63;5028718;28;20440;-76
2022/01/30 06:03:51;;;;;;;9.77;5.63;;;;;;;-3.03;63.61;95513.56;5028923;28;20463;-76
2022/01/30 06:06:16;;;;;;;12.50;6.03;;;;;;;-3.08;64.26;95509.53;5010817;28;20650;-75
2022/01/30 06:08:57;;;;;;;11.13;5.95;;;;;;;-2.99;64.16;95508.97;5030096;28;20028;-75
2022/01/30 06:11:22;;;;;;;9.60;5.57;;;;;;;-3.03;64.41;95510.13;5013840;28;20057;-76
2022/01/30 06:13:48;;;;;;;9.90;5.13;;;;;;;-2.97;64.11;95507.13;5011295;28;20029;-76
2022/01/30 06:16:13;;;;;;;11.18;5.53;;;;;;;-2.96;64.36;95487.78;5028654;28;20029;-76
2022/01/30 06:18:38;;;;;;;8.45;5.45;;;;;;;-2.90;63.79;95468.22;5028549;28;20075;-75
2022/01/30 06:21:04;;;;;;;11.60;6.00;;;;;;;-2.85;63.53;95479.25;5029023;28;20017;-75
2022/01/30 06:23:29;;;;;;;13.52;6.35;;;;;;;-2.78;63.35;95496.34;5028315;28;20033;-75
2022/01/30 06:25:55;;;;;;;9.77;5.10;;;;;;;-2.73;63.82;95506.56;5028156;28;20384;-75
2022/01/30 06:28:21;;;;;;;11.50;5.90;;;;;;;-2.67;64.06;95495.69;5027353;28;20079;-75
2022/01/30 06:30:46;;;;;;;14.68;7.28;;;;;;;-2.63;63.68;95475.34;5011505;28;20080;-76
2022/01/30 06:33:12;;;;;;;13.35;6.78;;;;;;;-2.61;63.33;95490.06;5011439;28;20107;-76
2022/01/30 06:35:37;;;;;;;14.18;6.72;;;;;;;-2.56;63.84;95492.41;5026867;28;20026;-75
2022/01/30 06:38:03;;;;;;;15.05;7.03;;;;;;;-2.49;63.48;95490.25;5028423;28;20026;-75
2022/01/30 06:40:28;;;;;;;14.57;7.90;;;;;;;-2.37;63.49;95492.09;5026411;28;20030;-78
2022/01/30 06:42:54;;;;;;;13.90;6.43;;;;;;;-2.36;62.89;95501.69;5011938;28;20040;-76
2022/01/30 06:45:20;;;;;;;12.95;6.55;;;;;;;-2.27;63.16;95510.75;5026934;28;20026;-75
2022/01/30 06:47:45;;;;;;;12.68;6.70;;;;;;;-2.25;62.83;95500.16;5026730;28;20060;-75
2022/01/30 06:50:13;;;;;;;12.70;6.63;;;;;;;-2.19;62.43;95486.63;5027376;28;20037;-75
2022/01/30 06:52:38;;;;;;;10.95;5.60;;;;;;;-2.18;62.50;95488.34;5026894;28;20646;-75
2022/01/30 06:55:04;;;;;;;13.30;7.25;;;;;;;-2.14;61.96;95474.03;5011184;28;20131;-75
2022/01/30 06:57:30;;;;;;;14.75;6.55;;;;;;;-2.10;61.98;95474.69;5026026;28;20466;-76
2022/01/30 06:59:55;;;;;;;13.20;5.88;;;;;;;-1.97;61.37;95474.75;5029442;28;20108;-76
2022/01/30 07:02:20;;;;;;;14.00;6.85;;;;;;;-1.97;61.37;95477.38;5028010;28;20028;-75
2022/01/30 07:04:46;;;;;;;13.15;6.03;;;;;;;-1.95;61.09;95467.59;5028771;28;20405;-76
2022/01/30 07:07:11;;;;;;;11.60;5.88;;;;;;;-1.91;61.09;95468.25;5027205;28;20393;-75
2022/01/30 07:09:37;;;;;;;16.83;7.00;;;;;;;-1.88;61.51;95461.03;5027104;28;20091;-77
2022/01/30 07:12:02;;;;;;;13.75;6.93;;;;;;;-1.82;61.32;95458.94;5030055;28;20094;-76
2022/01/30 07:14:29;;;;;;;13.57;5.85;;;;;;;-1.72;60.75;95467.03;5033013;28;20037;-76
2022/01/30 07:16:55;;;;;;;14.70;6.60;;;;;;;-1.67;60.27;95465.81;5031884;28;20029;-75
2022/01/30 07:19:20;;;;;;;14.82;7.10;;;;;;;-1.55;60.59;95481.75;5030092;28;20080;-77
2022/01/30 07:21:46;;;;;;;15.95;6.35;;;;;;;-1.41;60.93;95479.03;5030107;28;20950;-78
2022/01/30 07:24:11;;;;;;;13.82;5.72;;;;;;;-1.25;60.33;95475.38;5009163;28;20029;-76
2022/01/30 07:26:37;;;;;;;15.38;6.75;;;;;;;-1.21;60.28;95482.09;5026248;28;20040;-78
2022/01/30 07:29:04;;;;;;;11.68;6.35;;;;;;;-1.25;60.19;95475.38;5026591;28;20040;-75
2022/01/30 07:31:32;;;;;;;13.93;6.88;;;;;;;-1.24;60.65;95477.06;5010023;28;20562;-79
2022/01/30 07:33:58;;;;;;;13.82;7.32;;;;;;;-1.12;60.55;95492.03;4994690;28;20033;-77
2022/01/30 07:36:24;;;;;;;16.42;7.85;;;;;;;-1.20;61.15;95489.06;5009057;28;20021;-77
2022/01/30 07:38:49;;;;;;;10.52;6.88;;;;;;;-1.23;60.33;95477.91;5010237;28;20032;-76
2022/01/30 07:41:15;;;;;;;13.38;7.60;;;;;;;-1.19;60.04;95482.03;5025264;28;20056;-78
2022/01/30 07:43:40;;;;;;;10.80;6.57;;;;;;;-1.12;60.01;95473.63;5009744;28;20037;-77
2022/01/30 07:46:06;;;;;;;12.57;5.75;;;;;;;-1.05;60.11;95479.28;4992784;28;20028;-77
2022/01/30 07:48:32;;;;;;;15.05;5.95;;;;;;;-0.94;59.24;95462.78;5026326;28;20037;-78
2022/01/30 07:50:58;;;;;;;12.25;5.88;;;;;;;-0.87;58.83;95468.44;4993152;28;20087;-77
2022/01/30 07:53:23;;;;;;;12.63;5.43;;;;;;;-0.88;58.73;95467.63;5008863;28;20029;-79
2022/01/30 07:55:49;;;;;;;10.80;6.13;;;;;;;-0.77;57.99;95452.84;5009931;28;20036;-76
2022/01/30 07:58:14;;;;;;;8.95;5.68;;;;;;;-0.39;57.69;95454.59;5024762;28;20424;-81
2022/01/30 08:00:39;;;;;;;12.27;6.82;;;;;;;-0.13;56.25;95443.97;5026453;28;20029;-77
2022/01/30 08:03:05;;;;;;;13.18;6.57;;;;;;;0.18;56.06;95451.47;5026532;28;20037;-76
2022/01/30 08:05:30;;;;;;;15.23;7.32;;;;;;;0.66;54.84;95439.16;5026278;28;20021;-76
2022/01/30 08:07:56;;;;;;;12.98;7.22;;;;;;;0.67;55.32;95447.94;5025269;28;20104;-76
2022/01/30 08:10:22;;;;;;;14.50;7.55;;;;;;;0.56;55.30;95428.47;5009092;28;20476;-77
2022/01/30 08:12:47;;;;;;;15.82;6.88;;;;;;;0.71;55.12;95436.22;5026823;28;20036;-77
2022/01/30 08:15:12;;;;;;;75.43;43.72;;;;;;;1.08;54.30;95429.91;5025924;28;20408;-79
2022/01/30 08:17:39;;;;;;;17.30;8.98;;;;;;;1.23;53.83;95441.09;5009597;28;20120;-77
2022/01/30 08:20:08;;;;;;;16.48;8.95;;;;;;;1.43;52.66;95431.63;5023900;28;20103;-78
2022/01/30 08:22:46;;;;;;;14.75;8.18;;;;;;;1.64;52.98;95427.38;5010012;28;20500;-76
2022/01/30 08:25:11;;;;;;;14.27;7.05;;;;;;;1.73;51.78;95427.50;5026608;28;20068;-79
2022/01/30 08:27:38;;;;;;;14.90;7.85;;;;;;;1.81;51.98;95426.88;5009032;28;20026;-80
2022/01/30 08:30:04;;;;;;;19.38;7.95;;;;;;;1.96;51.02;95429.25;5025569;28;20470;-76
2022/01/30 08:32:30;;;;;;;20.05;10.10;;;;;;;2.07;50.98;95431.88;5024602;28;20068;-78
2022/01/30 08:34:55;;;;;;;16.27;7.93;;;;;;;2.21;49.77;95432.56;5025695;28;20034;-76
2022/01/30 08:37:20;;;;;;;22.38;8.30;;;;;;;2.35;49.54;95419.03;5007758;28;20014;-76
2022/01/30 08:39:46;;;;;;;15.23;7.25;;;;;;;2.47;49.66;95426.94;5025430;28;20037;-75
2022/01/30 08:42:11;;;;;;;16.63;7.55;;;;;;;2.68;46.76;95432.25;5024436;28;20034;-75
2022/01/30 08:44:37;;;;;;;14.90;7.68;;;;;;;2.94;46.20;95439.81;5025388;28;20460;-74
2022/01/30 08:47:02;;;;;;;17.05;8.15;;;;;;;2.99;45.05;95443.88;5026380;28;20025;-75
2022/01/30 08:49:29;;;;;;;21.90;9.35;;;;;;;2.96;46.08;95437.06;5024685;28;20021;-77
2022/01/30 08:51:54;;;;;;;16.67;8.52;;;;;;;2.90;45.67;95429.63;5009154;28;20037;-80
2022/01/30 08:54:20;;;;;;;21.27;8.68;;;;;;;2.67;45.96;95427.94;5024116;28;20492;-77
2022/01/30 08:56:45;;;;;;;11.98;6.43;;;;;;;2.83;45.13;95432.78;5025625;28;20111;-79
2022/01/30 08:59:11;;;;;;;8.48;5.22;;;;;;;2.95;43.40;95430.91;5025536;28;20431;-76
2022/01/30 09:01:37;;;;;;;13.15;5.25;;;;;;;3.30;42.09;95434.19;5026877;28;20119;-79
2022/01/30 09:04:03;;;;;;;9.90;5.10;;;;;;;3.47;42.02;95439.81;5026183;28;20430;-75
2022/01/30 09:06:29;;;;;;;10.10;4.80;;;;;;;3.55;44.17;95439.16;5026353;28;20021;-76
2022/01/30 09:08:55;;;;;;;11.35;5.00;;;;;;;3.28;44.93;95422.88;5026385;28;20569;-76
2022/01/30 09:11:20;;;;;;;13.35;4.97;;;;;;;3.15;44.23;95427.53;5023595;28;20029;-78
2022/01/30 09:13:46;;;;;;;15.20;5.35;;;;;;;2.98;43.86;95424.53;5026885;28;20029;-76
2022/01/30 09:16:11;;;;;;;7.90;3.97;;;;;;;2.93;43.29;95430.22;5025130;28;20029;-76
2022/01/30 09:18:38;;;;;;;12.88;4.78;;;;;;;2.99;42.76;95442.09;5026915;28;20017;-76
2022/01/30 09:21:03;;;;;;;8.10;4.75;;;;;;;3.18;42.49;95440.50;5025692;28;20033;-75
2022/01/30 09:23:29;;;;;;;10.48;5.57;;;;;;;3.39;42.58;95421.94;5008715;28;20537;-76
2022/01/30 09:25:54;;;;;;;12.25;5.65;;;;;;;3.48;42.67;95422.97;5025843;28;20044;-78
2022/01/30 09:28:19;;;;;;;14.65;5.32;;;;;;;3.58;42.86;95404.41;5025688;28;20084;-76
2022/01/30 09:30:45;;;;;;;10.23;3.80;;;;;;;3.76;40.19;95391.34;5026573;28;20509;-75
2022/01/30 09:33:10;;;;;;;11.52;5.35;;;;;;;3.93;40.40;95376.56;5023592;28;20120;-75
2022/01/30 09:35:36;;;;;;;13.32;5.82;;;;;;;4.04;38.17;95372.97;5026771;28;20032;-75
2022/01/30 09:38:02;;;;;;;20.90;6.55;;;;;;;4.22;38.61;95363.47;5007638;28;20346;-75
2022/01/30 09:40:28;;;;;;;17.85;6.63;;;;;;;4.28;37.59;95368.22;5025164;28;20021;-75
2022/01/30 09:42:53;;;;;;;17.40;5.70;;;;;;;4.38;38.30;95358.47;5024254;28;20026;-75
2022/01/30 09:45:22;;;;;;;17.85;5.57;;;;;;;4.50;38.46;95356.47;5008024;28;20029;-76
2022/01/30 09:47:47;;;;;;;17.05;5.10;;;;;;;4.64;37.73;95351.72;5026353;28;20029;-74
2022/01/30 09:50:16;;;;;;;13.40;5.53;;;;;;;4.71;38.00;95347.50;5025271;28;20369;-76
2022/01/30 09:52:41;;;;;;;17.05;8.18;;;;;;;4.80;39.69;95344.00;5026519;28;20029;-75
2022/01/30 09:55:08;;;;;;;28.88;13.20;;;;;;;4.88;41.71;95342.44;5024818;28;20067;-77
2022/01/30 09:57:34;;;;;;;24.55;12.18;;;;;;;4.81;40.97;95327.09;5026231;28;20045;-75
2022/01/30 10:00:00;;;;;;;26.20;12.13;;;;;;;4.67;41.28;95327.53;5025286;28;20075;-77
2022/01/30 10:02:26;;;;;;;21.50;12.10;;;;;;;4.46;40.84;95325.88;5024494;28;20061;-74
2022/01/30 10:04:52;;;;;;;19.70;9.77;;;;;;;4.33;40.91;95313.75;5025821;28;20022;-76
2022/01/30 10:07:20;;;;;;;21.50;10.07;;;;;;;4.58;40.36;95306.16;5007602;28;20033;-75
2022/01/30 10:09:48;;;;;;;17.45;9.48;;;;;;;4.72;41.46;95306.69;5026193;28;20103;-77
2022/01/30 10:14:51;;;;;;;16.73;9.27;;;;;;;4.79;40.75;95301.63;5025126;28;20022;-77
2022/01/30 10:17:36;;;;;;;13.98;7.75;;;;;;;4.94;39.33;95309.97;5007281;28;20044;-80
2022/01/30 10:20:10;;;;;;;13.95;6.88;;;;;;;5.00;40.29;95309.38;5007487;28;20064;-76
2022/01/30 10:22:37;;;;;;;13.77;7.20;;;;;;;5.06;39.99;95311.47;5027647;28;20033;-76
2022/01/30 10:25:03;;;;;;;15.50;6.75;;;;;;;5.16;39.32;95308.78;5026961;28;20025;-77
2022/01/30 10:27:29;;;;;;;10.85;5.38;;;;;;;5.12;39.69;95307.41;5011829;28;20021;-76
2022/01/30 10:30:00;;;;;;;15.00;5.82;;;;;;;5.17;40.10;95285.69;5026815;28;20049;-77
2022/01/30 10:32:26;;;;;;;11.52;5.38;;;;;;;5.16;39.12;95268.88;5027888;28;20456;-76
2022/01/30 10:35:05;;;;;;;13.82;5.75;;;;;;;5.26;39.40;95275.97;5010962;28;20022;-79
2022/01/30 10:37:31;;;;;;;13.70;6.00;;;;;;;5.38;39.32;95271.31;5027170;28;20091;-76
2022/01/30 10:40:34;;;;;;;12.02;5.53;;;;;;;5.31;39.17;95274.56;5011520;28;20106;-76
2022/01/30 10:43:00;;;;;;;9.48;5.35;;;;;;;5.27;38.49;95259.88;5028244;28;20031;-76
2022/01/30 10:45:28;;;;;;;24.05;5.47;;;;;;;5.26;37.38;95234.28;5028049;28;20025;-77
2022/01/30 10:48:14;;;;;;;15.38;6.03;;;;;;;5.21;38.69;95238.38;5027297;28;20086;-76
2022/01/30 10:50:41;;;;;;;15.25;5.95;;;;;;;5.20;38.20;95242.84;5028133;28;20545;-78
2022/01/30 10:53:06;;;;;;;12.60;5.80;;;;;;;5.25;39.49;95234.44;5029360;28;20108;-78
2022/01/30 10:55:39;;;;;;;10.93;5.82;;;;;;;5.37;38.83;95240.38;5026444;28;20021;-79
2022/01/30 10:58:05;;;;;;;;;;;;;;;5.38;39.20;95237.56;5011979;28;20152;-80
2022/01/30 11:00:37;;;;;;;12.77;5.57;;;;;;;5.52;39.31;95232.72;5026640;28;19913;-77
2022/01/30 11:03:03;;;;;;;17.35;8.00;;;;;;;5.48;38.64;95231.34;5027463;28;20030;-79
2022/01/30 11:05:28;;;;;;;24.30;11.52;;;;;;;5.60;40.34;95223.97;5010599;28;20107;-80
2022/01/30 11:07:54;;;;;;;28.52;11.63;;;;;;;5.58;40.47;95218.81;5028179;28;20018;-78
2022/01/30 11:10:24;;;;;;;19.58;11.57;;;;;;;5.68;40.29;95190.31;5027874;28;20381;-77
2022/01/30 11:13:07;;;;;;;22.33;10.63;;;;;;;5.68;39.33;95194.78;5027304;28;20036;-77
2022/01/30 11:17:59;;;;;;;20.65;8.93;;;;;;;5.78;39.33;95192.91;5010422;28;20107;-75
2022/01/30 11:20:24;;;;;;;15.38;8.35;;;;;;;5.84;38.33;95195.91;5010513;28;20381;-76
2022/01/30 11:22:51;;;;;;;17.33;9.38;;;;;;;5.93;38.84;95200.34;5026667;28;20060;-76
2022/01/30 11:25:16;;;;;;;21.83;9.00;;;;;;;6.07;39.74;95212.28;5010010;28;20084;-75
2022/01/30 11:27:46;;;;;;;19.13;9.02;;;;;;;6.15;39.28;95195.53;5027163;28;20033;-76
2022/01/30 11:30:11;;;;;;;18.38;9.10;;;;;;;6.24;39.19;95210.56;5010082;28;20025;-77
2022/01/30 11:32:37;;;;;;;21.55;9.38;;;;;;;6.21;39.29;95205.56;5027568;28;20115;-76
2022/01/30 11:35:02;;;;;;;16.65;8.77;;;;;;;6.22;38.69;95196.59;5009663;28;20408;-76
2022/01/30 11:37:29;;;;;;;17.85;9.40;;;;;;;6.18;39.29;95189.91;5026913;28;20395;-76
2022/01/30 11:39:54;;;;;;;17.98;9.52;;;;;;;6.15;39.18;95182.22;5009853;28;20032;-75
2022/01/30 11:42:23;;;;;;;22.42;9.77;;;;;;;6.23;39.39;95184.09;5009957;28;20100;-75
2022/01/30 11:44:49;;;;;;;19.05;9.82;;;;;;;6.24;40.07;95177.81;5026705;28;20079;-75
2022/01/30 11:47:15;;;;;;;20.52;9.63;;;;;;;6.23;38.91;95176.94;5009281;28;20021;-75
2022/01/30 11:49:48;;;;;;;22.75;10.27;;;;;;;6.16;39.03;95162.56;5028385;28;20037;-80
2022/01/30 11:52:14;;;;;;;;;;;;;;;6.20;38.37;95153.28;5027874;28;20263;-75
2022/01/30 11:54:50;;;;;;;20.10;9.35;;;;;;;6.30;39.19;95156.69;5026365;28;20436;-76
2022/01/30 11:57:18;;;;;;;17.95;9.43;;;;;;;6.31;38.79;95160.19;5025964;28;20049;-75
2022/01/30 11:59:43;;;;;;;16.15;8.18;;;;;;;6.40;38.79;95158.41;5027147;28;20017;-76
2022/01/30 12:02:34;;;;;;;8.95;3.85;;;;;;;6.50;38.05;95150.28;5010389;28;20033;-75
2022/01/30 12:04:59;;;;;;;6.25;3.63;;;;;;;6.43;37.87;95150.09;5026875;28;20053;-76
2022/01/30 12:07:41;;;;;;;5.07;2.90;;;;;;;6.37;38.60;95150.72;5027693;28;20053;-75
2022/01/30 12:10:15;;;;;;;5.53;2.70;;;;;;;6.30;38.47;95161.19;5025816;28;20507;-75
2022/01/30 12:13:03;;;;;;;6.05;2.90;;;;;;;6.21;38.47;95146.97;5026798;28;20107;-76
2022/01/30 12:15:36;;;;;;;9.88;2.88;;;;;;;6.16;38.30;95134.13;5026558;28;20025;-75
2022/01/30 12:18:03;;;;;;;5.20;3.03;;;;;;;6.06;38.22;95136.06;5026144;28;20776;-76
2022/01/30 12:20:30;;;;;;;7.78;3.33;;;;;;;6.04;39.91;95128.25;5026240;28;20021;-75
2022/01/30 12:22:56;;;;;;;6.28;3.50;;;;;;;6.00;40.35;95124.16;5025308;28;20033;-75
2022/01/30 12:25:31;;;;;;;7.75;3.83;;;;;;;5.99;40.40;95103.03;5025703;28;20377;-76
2022/01/30 12:27:59;;;;;;;6.20;3.47;;;;;;;6.14;41.01;95108.66;5025932;28;20033;-75
2022/01/30 12:30:37;;;;;;;8.65;3.42;;;;;;;6.14;40.63;95104.16;5024923;28;20107;-76